Time;durP1;ratioP1;P1;durP2;ratioP2;P2;SDS_P1;SDS_P2;PMS_P1;PMS_P2;Temp;Humidity;BMP_temperature;BMP_pressure;BME280_temperature;BME280_humidity;BME280_pressure;Samples;Min_cycle;Max_cycle;Signal;HPM_P1;HPM_P2
2023/09/18 00:00:18;;;;;;;58.25;42.90;;;;;;;25.37;100.00;100327.00;4991842;28;20085;-49
2023/09/18 00:02:44;;;;;;;64.07;45.00;;;;;;;25.32;100.00;100319.28;4991420;28;20073;-47
2023/09/18 00:05:15;;;;;;;62.20;44.47;;;;;;;25.35;100.00;100317.47;4991519;28;20128;-47
2023/09/18 00:07:43;;;;;;;59.83;42.50;;;;;;;25.33;100.00;100305.81;4991489;28;20054;-45
2023/09/18 00:10:11;;;;;;;60.83;41.85;;;;;;;25.36;100.00;100299.84;4992280;28;20502;-46
2023/09/18 00:12:38;;;;;;;60.83;43.33;;;;;;;25.33;100.00;100295.22;4990332;28;20069;-47
2023/09/18 00:15:06;;;;;;;59.60;42.33;;;;;;;25.29;100.00;100296.81;4991352;28;20042;-47
2023/09/18 00:17:32;;;;;;;59.47;43.17;;;;;;;25.30;100.00;100304.81;4996334;28;20152;-44
2023/09/18 00:19:59;;;;;;;56.13;41.30;;;;;;;25.32;100.00;100296.53;4991516;28;20042;-48
2023/09/18 00:22:25;;;;;;;57.42;41.33;;;;;;;25.31;100.00;100285.69;4990333;28;20500;-47
2023/09/18 00:24:52;;;;;;;56.88;40.92;;;;;;;25.31;100.00;100289.28;4990158;28;20049;-47
2023/09/18 00:27:18;;;;;;;58.80;41.05;;;;;;;25.27;100.00;100290.88;4990945;28;20050;-47
2023/09/18 00:29:45;;;;;;;57.00;39.45;;;;;;;25.30;100.00;100273.53;4990773;28;20148;-48
2023/09/18 00:32:11;;;;;;;55.58;40.35;;;;;;;25.25;100.00;100280.03;4993966;28;20779;-45
2023/09/18 00:34:38;;;;;;;58.35;39.42;;;;;;;25.24;100.00;100280.56;4991043;28;20038;-45
2023/09/18 00:37:04;;;;;;;57.47;41.45;;;;;;;25.26;100.00;100280.78;4990603;28;20552;-45
2023/09/18 00:39:31;;;;;;;59.45;40.05;;;;;;;25.28;100.00;100263.97;4990239;28;20089;-48
2023/09/18 00:41:57;;;;;;;57.88;39.40;;;;;;;25.29;100.00;100254.91;4992008;28;20054;-47
2023/09/18 00:44:26;;;;;;;54.22;39.25;;;;;;;25.26;100.00;100255.97;4993921;28;20050;-46
2023/09/18 00:46:55;;;;;;;52.22;37.03;;;;;;;25.28;100.00;100250.50;4994045;28;20069;-45
2023/09/18 00:49:22;;;;;;;56.63;39.65;;;;;;;25.29;100.00;100248.44;4990034;28;20211;-46
2023/09/18 00:51:50;;;;;;;52.05;36.97;;;;;;;25.28;100.00;100239.13;4990009;28;20140;-43
2023/09/18 00:54:19;;;;;;;57.42;38.47;;;;;;;25.26;100.00;100229.59;4991058;28;20057;-46
2023/09/18 00:56:48;;;;;;;52.55;36.60;;;;;;;25.25;100.00;100228.06;4983755;28;20187;-52
2023/09/18 00:59:14;;;;;;;50.13;36.10;;;;;;;25.27;100.00;100223.38;4990355;28;20093;-45
2023/09/18 01:01:43;;;;;;;52.28;34.83;;;;;;;25.25;100.00;100225.22;4990352;28;20587;-49
2023/09/18 01:04:10;;;;;;;54.38;37.70;;;;;;;25.29;100.00;100217.94;4990603;28;20046;-46
2023/09/18 01:06:37;;;;;;;52.85;37.88;;;;;;;25.31;100.00;100209.63;4989682;28;20102;-48
2023/09/18 01:09:11;;;;;;;50.72;34.97;;;;;;;25.29;100.00;100203.72;4990697;28;20092;-47
2023/09/18 01:11:38;;;;;;;;;;;;;;;25.29;100.00;100209.41;4990488;28;20069;-49
2023/09/18 01:14:30;;;;;;;55.42;35.70;;;;;;;25.26;100.00;100209.69;4990176;28;19948;-47
2023/09/18 01:16:58;;;;;;;52.05;34.33;;;;;;;25.26;100.00;100204.75;4994865;28;20054;-50
2023/09/18 01:19:38;;;;;;;51.60;35.60;;;;;;;25.28;100.00;100199.31;4993714;28;20058;-47
2023/09/18 01:22:06;;;;;;;47.85;33.47;;;;;;;25.26;100.00;100190.53;4990198;28;20053;-44
2023/09/18 01:24:37;;;;;;;49.85;34.42;;;;;;;25.24;100.00;100190.28;4989655;28;20140;-48
2023/09/18 01:27:06;;;;;;;46.42;33.17;;;;;;;25.21;100.00;100188.50;4989331;28;20140;-46
2023/09/18 01:29:33;;;;;;;48.45;34.60;;;;;;;25.24;100.00;100192.38;4989533;28;20111;-49
2023/09/18 01:31:59;;;;;;;49.85;34.47;;;;;;;25.27;100.00;100183.53;4992438;28;20046;-48
2023/09/18 01:34:33;;;;;;;49.25;33.22;;;;;;;25.24;100.00;100181.00;4989557;28;20046;-48
2023/09/18 01:37:00;;;;;;;49.88;34.97;;;;;;;25.30;100.00;100176.00;4989851;28;20053;-46
2023/09/18 01:39:31;;;;;;;47.80;33.28;;;;;;;25.25;100.00;100182.53;4994003;28;20050;-51
2023/09/18 01:42:05;;;;;;;46.95;31.25;;;;;;;25.22;100.00;100180.75;4985334;28;20043;-48
2023/09/18 01:44:38;;;;;;;45.47;32.15;;;;;;;25.27;100.00;100183.53;4990894;28;20473;-45
2023/09/18 01:47:07;;;;;;;45.55;31.75;;;;;;;25.25;100.00;100171.16;4989250;28;20428;-45
2023/09/18 01:49:37;;;;;;;45.67;31.92;;;;;;;25.21;100.00;100170.69;4989057;28;20077;-46
2023/09/18 01:52:06;;;;;;;43.65;31.58;;;;;;;25.24;100.00;100163.94;4989063;28;20050;-48
2023/09/18 01:54:34;;;;;;;44.35;30.35;;;;;;;25.25;100.00;100171.94;4989746;28;20050;-49
2023/09/18 01:57:01;;;;;;;43.13;29.95;;;;;;;25.23;100.00;100168.84;4989021;28;20161;-46
2023/09/18 01:59:28;;;;;;;44.63;29.92;;;;;;;25.25;100.00;100160.56;4990204;28;20145;-46
2023/09/18 02:01:55;;;;;;;44.78;30.95;;;;;;;25.24;100.00;100156.16;4990948;28;20056;-46
2023/09/18 02:04:23;;;;;;;43.45;30.05;;;;;;;25.23;100.00;100151.78;4994619;28;20046;-47
2023/09/18 02:07:09;;;;;;;43.03;30.55;;;;;;;25.22;100.00;100143.78;4985956;28;20050;-46
2023/09/18 02:09:36;;;;;;;45.63;30.33;;;;;;;25.22;100.00;100136.03;4989868;28;20060;-47
2023/09/18 02:12:04;;;;;;;42.13;29.77;;;;;;;25.25;100.00;100128.50;4988578;28;20050;-45
2023/09/18 02:14:31;;;;;;;43.42;29.33;;;;;;;25.21;100.00;100131.63;4988404;28;20050;-46
2023/09/18 02:16:58;;;;;;;42.65;29.25;;;;;;;25.22;100.00;100127.50;4988770;28;20633;-47
2023/09/18 02:19:24;;;;;;;43.47;30.40;;;;;;;25.22;100.00;100130.34;4989093;28;20096;-48
2023/09/18 02:21:51;;;;;;;42.92;29.48;;;;;;;25.20;100.00;100123.63;4989001;28;20140;-46
2023/09/18 02:24:17;;;;;;;43.38;30.58;;;;;;;25.26;100.00;100130.03;4988683;28;20468;-46
2023/09/18 02:26:45;;;;;;;40.63;28.83;;;;;;;25.21;100.00;100125.19;4989027;28;20089;-48
2023/09/18 02:29:14;;;;;;;40.65;29.33;;;;;;;25.18;100.00;100112.78;4989114;28;20563;-47
2023/09/18 02:31:41;;;;;;;43.55;28.48;;;;;;;25.20;100.00;100110.19;4990229;28;20568;-47
2023/09/18 02:34:08;;;;;;;39.20;27.98;;;;;;;25.20;100.00;100104.47;4992749;28;20501;-48
2023/09/18 02:36:35;;;;;;;43.53;29.30;;;;;;;25.17;100.00;100104.81;4988607;28;20058;-48
2023/09/18 02:39:02;;;;;;;42.55;27.42;;;;;;;25.14;100.00;100089.53;4988633;28;20078;-45
2023/09/18 02:41:29;;;;;;;45.78;28.33;;;;;;;25.15;100.00;100088.25;4989041;28;20085;-45
2023/09/18 02:43:56;;;;;;;41.30;28.20;;;;;;;25.20;100.00;100084.56;4988886;28;20140;-44
2023/09/18 02:46:22;;;;;;;38.92;27.33;;;;;;;25.20;100.00;100078.09;4988013;28;20046;-51
2023/09/18 02:48:49;;;;;;;39.70;27.67;;;;;;;25.22;100.00;100070.59;4992654;28;20137;-48
2023/09/18 02:51:16;;;;;;;36.83;25.98;;;;;;;25.20;100.00;100061.03;4988485;28;20054;-47
2023/09/18 02:53:43;;;;;;;38.60;27.00;;;;;;;25.18;100.00;100050.19;4994242;28;20058;-49
2023/09/18 02:56:10;;;;;;;38.88;26.95;;;;;;;25.19;100.00;100054.59;4992041;28;20078;-49
2023/09/18 02:58:37;;;;;;;36.97;24.75;;;;;;;25.19;100.00;100046.06;4991548;28;20046;-49
2023/09/18 03:01:05;;;;;;;38.22;25.73;;;;;;;25.19;100.00;100039.59;4988541;28;20133;-46
2023/09/18 03:03:34;;;;;;;38.55;25.70;;;;;;;25.16;100.00;100030.06;4988880;28;20073;-46
2023/09/18 03:06:02;;;;;;;36.60;25.73;;;;;;;25.15;100.00;100019.22;4993429;28;20134;-45
2023/09/18 03:08:29;;;;;;;37.65;24.52;;;;;;;25.15;100.00;100019.22;4988282;28;20054;-45
2023/09/18 03:10:56;;;;;;;35.63;24.40;;;;;;;25.17;100.00;100039.38;4990306;28;20602;-48
2023/09/18 03:13:23;;;;;;;35.53;25.35;;;;;;;25.19;100.00;100031.84;4991900;28;20468;-47
2023/09/18 03:15:49;;;;;;;36.35;24.02;;;;;;;25.20;100.00;100032.59;4991994;28;20050;-48
2023/09/18 03:18:16;;;;;;;33.88;24.10;;;;;;;25.18;100.00;100030.28;4992036;28;20508;-47
2023/09/18 03:20:43;;;;;;;36.15;24.52;;;;;;;25.14;100.00;100015.59;4992232;28;20050;-46
2023/09/18 03:23:09;;;;;;;34.50;23.98;;;;;;;25.15;100.00;100014.31;4992662;28;20050;-46
2023/09/18 03:25:37;;;;;;;34.85;23.38;;;;;;;25.18;100.00;100015.31;4991906;28;20046;-48
2023/09/18 03:28:16;;;;;;;35.60;25.23;;;;;;;25.15;100.00;100008.63;4989667;28;20065;-46
2023/09/18 03:30:42;;;;;;;33.83;23.48;;;;;;;25.15;100.00;100005.78;4994940;28;20054;-47
2023/09/18 03:33:09;;;;;;;34.65;23.33;;;;;;;25.19;100.00;100003.41;4997492;28;20058;-45
2023/09/18 03:35:46;;;;;;;34.17;24.00;;;;;;;25.11;100.00;99991.06;4991649;28;20058;-44
2023/09/18 03:38:13;;;;;;;33.78;23.33;;;;;;;25.11;100.00;99985.38;4991745;28;20046;-48
2023/09/18 03:40:40;;;;;;;35.10;24.25;;;;;;;25.17;100.00;99979.66;4990644;28;20056;-47
2023/09/18 03:43:08;;;;;;;35.08;22.90;;;;;;;25.15;100.00;99980.19;4991699;28;20117;-46
2023/09/18 03:45:35;;;;;;;35.25;24.50;;;;;;;25.20;100.00;99976.50;4991668;28;20428;-45
2023/09/18 03:48:02;;;;;;;34.22;23.17;;;;;;;25.17;100.00;99976.81;4991635;28;20054;-45
2023/09/18 03:50:28;;;;;;;34.70;23.65;;;;;;;25.19;100.00;99977.81;4991966;28;20050;-50
2023/09/18 03:52:55;;;;;;;33.25;21.58;;;;;;;25.13;100.00;99965.72;4991457;28;20141;-45
2023/09/18 03:55:21;;;;;;;33.45;22.88;;;;;;;25.15;100.00;99965.97;4990882;28;20069;-46
2023/09/18 03:57:48;;;;;;;33.60;21.58;;;;;;;25.19;100.00;99962.81;4991204;28;20085;-46
2023/09/18 04:00:16;;;;;;;32.90;23.10;;;;;;;25.16;100.00;99955.34;4991660;28;20050;-49
2023/09/18 04:02:42;;;;;;;34.97;22.40;;;;;;;25.14;100.00;99950.19;4991512;28;20077;-50
2023/09/18 04:05:09;;;;;;;34.65;21.58;;;;;;;25.20;100.00;99944.44;4991567;28;20058;-47
2023/09/18 04:07:36;;;;;;;34.80;22.38;;;;;;;25.19;100.00;99949.38;4990623;28;20572;-49
2023/09/18 04:10:03;;;;;;;30.45;21.50;;;;;;;25.15;100.00;99939.59;4991375;28;20096;-44
2023/09/18 04:12:30;;;;;;;35.13;22.20;;;;;;;25.15;100.00;99931.84;4989747;28;20085;-44
2023/09/18 04:14:57;;;;;;;30.15;20.58;;;;;;;25.13;100.00;99919.44;4990469;28;20138;-48
2023/09/18 04:17:23;;;;;;;30.92;21.17;;;;;;;25.15;100.00;99916.84;4991208;28;20053;-49
2023/09/18 04:19:50;;;;;;;31.70;21.05;;;;;;;25.14;100.00;99910.38;4983520;28;20443;-45
2023/09/18 04:22:16;;;;;;;33.30;21.02;;;;;;;25.15;100.00;99897.72;4990195;28;20116;-44
2023/09/18 04:24:43;;;;;;;32.70;20.85;;;;;;;25.19;100.00;99912.38;4990564;28;20085;-45
2023/09/18 04:27:09;;;;;;;29.70;20.58;;;;;;;25.13;100.00;99914.53;4990531;28;20054;-48
2023/09/18 04:29:36;;;;;;;30.52;21.00;;;;;;;25.14;100.00;99932.38;4996332;28;20054;-47
2023/09/18 04:32:04;;;;;;;30.95;20.65;;;;;;;25.14;100.00;99932.38;4991297;28;20056;-46
2023/09/18 04:34:31;;;;;;;30.50;20.30;;;;;;;25.14;100.00;99923.84;4990904;28;20156;-44
2023/09/18 04:36:57;;;;;;;29.33;20.33;;;;;;;25.16;100.00;99926.91;4990505;28;20046;-45
2023/09/18 04:39:24;;;;;;;29.33;20.25;;;;;;;25.15;100.00;99940.38;4990776;28;20133;-48
2023/09/18 04:41:50;;;;;;;32.33;20.15;;;;;;;25.15;100.00;99942.44;4990318;28;20093;-46
2023/09/18 04:44:17;;;;;;;31.48;20.98;;;;;;;25.14;100.00;99949.44;4990883;28;20104;-46
2023/09/18 04:46:44;;;;;;;31.17;20.67;;;;;;;25.11;100.00;99961.88;4983113;28;20046;-48
2023/09/18 04:49:11;;;;;;;30.13;19.85;;;;;;;25.15;100.00;99954.59;4990499;28;20058;-49
2023/09/18 04:51:39;;;;;;;32.33;20.95;;;;;;;25.12;100.00;99943.50;4990282;28;20052;-46
2023/09/18 04:54:06;;;;;;;29.08;20.33;;;;;;;25.11;100.00;99945.56;4989965;28;20054;-44
2023/09/18 04:56:33;;;;;;;28.30;18.27;;;;;;;25.09;100.00;99936.81;4996501;28;20046;-46
2023/09/18 04:58:59;;;;;;;28.52;18.90;;;;;;;25.15;100.00;99931.06;4985700;28;20042;-51
2023/09/18 05:01:26;;;;;;;28.17;18.77;;;;;;;25.19;100.00;99929.44;5000525;28;20136;-46
2023/09/18 05:03:53;;;;;;;29.67;19.05;;;;;;;25.16;100.00;99941.13;4989847;28;20472;-46
2023/09/18 05:06:20;;;;;;;26.45;18.25;;;;;;;25.16;100.00;99952.50;4991591;28;20484;-45
2023/09/18 05:08:47;;;;;;;28.85;18.23;;;;;;;25.12;100.00;99960.56;4989171;28;20423;-47
2023/09/18 05:11:14;;;;;;;29.10;19.48;;;;;;;25.12;100.00;99969.88;4990430;28;20417;-47
2023/09/18 05:13:40;;;;;;;27.73;17.60;;;;;;;25.16;100.00;99964.66;4990540;28;20111;-47
2023/09/18 05:16:07;;;;;;;26.95;16.98;;;;;;;25.14;100.00;99983.56;4992188;28;20116;-45
2023/09/18 05:18:33;;;;;;;28.80;18.30;;;;;;;25.12;100.00;99981.25;4989719;28;20504;-45
2023/09/18 05:21:01;;;;;;;27.95;17.52;;;;;;;25.09;100.00;99982.31;4990015;28;20046;-45
2023/09/18 05:23:28;;;;;;;26.88;17.75;;;;;;;25.10;100.00;99975.31;4986586;28;20058;-44
2023/09/18 05:25:55;;;;;;;28.02;17.15;;;;;;;25.10;100.00;99968.84;4990036;28;20052;-48
2023/09/18 05:28:21;;;;;;;27.63;17.55;;;;;;;25.16;100.00;99980.94;4989561;28;20109;-46
2023/09/18 05:30:48;;;;;;;26.70;17.52;;;;;;;25.11;100.00;99974.00;4989695;28;20064;-43
2023/09/18 05:33:14;;;;;;;27.85;16.50;;;;;;;25.13;100.00;99957.19;4989679;28;20057;-46
2023/09/18 05:35:43;;;;;;;26.73;16.80;;;;;;;25.08;100.00;99963.72;4988220;28;22213;-49
2023/09/18 05:38:13;;;;;;;26.83;17.15;;;;;;;25.11;100.00;99964.72;4989332;28;20050;-45
2023/09/18 05:40:40;;;;;;;26.88;17.23;;;;;;;25.08;100.00;99946.66;5004144;28;20081;-44
2023/09/18 05:43:07;;;;;;;25.27;15.80;;;;;;;25.06;100.00;99954.94;4989265;28;20050;-46
2023/09/18 05:45:34;;;;;;;26.58;17.17;;;;;;;25.11;100.00;99956.19;4993694;28;20046;-45
2023/09/18 05:48:03;;;;;;;24.90;15.55;;;;;;;25.08;100.00;99945.88;4995469;28;20513;-45
2023/09/18 05:50:32;;;;;;;24.17;15.73;;;;;;;25.07;100.00;99956.47;4988921;28;20128;-44
2023/09/18 05:53:00;;;;;;;27.05;17.20;;;;;;;25.13;100.00;99959.25;4989462;28;20054;-46
2023/09/18 05:55:33;;;;;;;25.35;16.10;;;;;;;25.10;100.00;99966.78;4989483;28;20054;-48
2023/09/18 05:58:00;;;;;;;25.83;15.93;;;;;;;25.12;100.00;99964.19;4988241;28;20057;-49
2023/09/18 06:00:33;;;;;;;27.58;15.32;;;;;;;25.18;100.00;99973.41;4988595;28;20058;-45
2023/09/18 06:03:00;;;;;;;23.55;14.73;;;;;;;25.19;100.00;99955.06;4986690;28;20055;-48
2023/09/18 06:05:27;;;;;;;28.98;16.27;;;;;;;25.19;100.00;99971.34;4991937;28;20058;-48
2023/09/18 06:07:53;;;;;;;24.48;14.57;;;;;;;25.20;100.00;99973.66;4989107;28;20042;-44
2023/09/18 06:10:21;;;;;;;23.83;15.25;;;;;;;25.15;100.00;99956.66;4986705;28;20509;-45
2023/09/18 06:12:47;;;;;;;27.35;15.52;;;;;;;25.16;100.00;99970.34;4998293;28;20515;-45
2023/09/18 06:15:14;;;;;;;24.65;14.57;;;;;;;25.18;100.00;99972.66;4988017;28;20661;-49
2023/09/18 06:17:42;;;;;;;22.08;13.68;;;;;;;25.23;100.00;99986.78;4994522;28;20086;-46
2023/09/18 06:20:12;;;;;;;24.13;14.40;;;;;;;25.14;100.00;99984.31;4988159;28;20137;-44
2023/09/18 06:22:40;;;;;;;23.35;13.63;;;;;;;25.15;100.00;99991.56;4995891;28;20046;-45
2023/09/18 06:25:09;;;;;;;23.25;13.48;;;;;;;25.12;100.00;99991.84;5000129;28;20050;-48
2023/09/18 06:27:37;;;;;;;26.13;14.10;;;;;;;25.15;100.00;99996.47;4989222;28;20085;-47
2023/09/18 06:30:05;;;;;;;22.50;13.00;;;;;;;25.08;100.00;100009.22;4995615;28;20042;-46
2023/09/18 06:32:31;;;;;;;23.08;14.00;;;;;;;25.13;100.00;100021.81;4989689;28;20140;-48
2023/09/18 06:34:58;;;;;;;21.15;12.95;;;;;;;25.13;100.00;100021.81;4988998;28;20034;-45
2023/09/18 06:37:25;;;;;;;22.85;13.32;;;;;;;25.12;100.00;100009.69;4994068;28;20586;-47
2023/09/18 06:39:51;;;;;;;23.58;13.40;;;;;;;25.13;100.00;100004.75;4987619;28;20076;-48
2023/09/18 06:42:18;;;;;;;22.73;13.48;;;;;;;25.11;100.00;100004.53;4986765;28;20437;-45
2023/09/18 06:44:45;;;;;;;20.00;12.02;;;;;;;25.09;100.00;100015.66;4989580;28;20582;-46
2023/09/18 06:47:11;;;;;;;21.02;12.57;;;;;;;25.14;100.00;100021.28;4987956;28;20058;-47
2023/09/18 06:49:38;;;;;;;21.35;12.63;;;;;;;25.11;100.00;100004.53;4988521;28;20061;-44
2023/09/18 06:52:06;;;;;;;22.15;12.25;;;;;;;25.08;100.00;99999.91;4996606;28;20134;-44
2023/09/18 06:54:33;;;;;;;23.38;12.70;;;;;;;25.15;100.00;100005.78;4989762;28;20065;-45
2023/09/18 06:56:59;;;;;;;20.27;12.20;;;;;;;25.15;100.00;100010.69;4986965;28;20071;-49
2023/09/18 06:59:26;;;;;;;24.40;12.02;;;;;;;25.17;100.00;100011.69;4981075;28;20059;-48
2023/09/18 07:01:56;;;;;;;20.55;11.45;;;;;;;25.19;100.00;100020.47;4995083;28;20058;-48
2023/09/18 07:04:22;;;;;;;19.33;11.25;;;;;;;25.14;100.00;100029.81;4988579;28;20046;-44
2023/09/18 07:06:49;;;;;;;22.52;11.68;;;;;;;25.22;100.00;100025.09;4987836;28;20042;-42
2023/09/18 07:09:17;;;;;;;20.70;10.70;;;;;;;25.19;100.00;100033.91;4987310;28;20062;-45
2023/09/18 07:11:44;;;;;;;20.50;11.55;;;;;;;25.15;100.00;100031.38;4993381;28;20111;-50
2023/09/18 07:14:11;;;;;;;20.67;11.10;;;;;;;25.13;100.00;100044.56;4988600;28;20117;-46
2023/09/18 07:16:37;;;;;;;22.05;11.35;;;;;;;25.12;100.00;100043.03;4986369;28;20117;-45
2023/09/18 07:19:04;;;;;;;19.75;9.02;;;;;;;25.06;100.00;100045.94;4986051;28;20134;-49
2023/09/18 07:21:31;;;;;;;14.38;6.18;;;;;;;25.08;100.00;100048.25;4988277;28;20431;-43
2023/09/18 07:23:58;;;;;;;15.30;6.10;;;;;;;25.14;100.00;100052.56;4988556;28;20082;-44
2023/09/18 07:26:24;;;;;;;14.07;5.35;;;;;;;25.14;100.00;100046.13;4986637;28;20070;-47
2023/09/18 07:28:51;;;;;;;13.25;5.25;;;;;;;25.13;100.00;100050.25;4987343;28;20061;-46
2023/09/18 07:31:18;;;;;;;12.93;4.53;;;;;;;25.05;100.00;100044.41;4988290;28;20145;-44
2023/09/18 07:33:44;;;;;;;11.95;4.68;;;;;;;25.03;100.00;100040.53;4986480;28;20457;-49
2023/09/18 07:36:11;;;;;;;13.65;4.75;;;;;;;25.09;100.00;100046.94;4987765;28;20053;-46
2023/09/18 07:38:37;;;;;;;11.95;4.20;;;;;;;25.08;100.00;100054.72;4987831;28;20114;-44
2023/09/18 07:41:04;;;;;;;8.73;3.20;;;;;;;25.05;100.00;100055.78;4994830;28;20065;-44
2023/09/18 07:43:31;;;;;;;10.77;3.67;;;;;;;25.04;100.00;100059.16;4987977;28;20532;-47
2023/09/18 07:45:59;;;;;;;10.23;3.13;;;;;;;24.98;100.00;100062.06;4988018;28;20129;-44
2023/09/18 07:48:26;;;;;;;11.77;3.17;;;;;;;24.98;100.00;100067.75;4991280;28;20220;-47
2023/09/18 07:50:54;;;;;;;10.45;2.75;;;;;;;25.00;100.00;100070.81;4987394;28;20043;-44
2023/09/18 07:53:21;;;;;;;9.18;2.85;;;;;;;24.99;100.00;100063.59;4987800;28;20699;-50
2023/09/18 07:55:55;;;;;;;9.07;3.00;;;;;;;25.04;100.00;100059.91;5007191;28;20065;-43
2023/09/18 07:58:21;;;;;;;7.05;2.50;;;;;;;24.98;100.00;100056.38;4989270;28;20050;-48
2023/09/18 08:00:48;;;;;;;9.60;2.90;;;;;;;25.01;100.00;100063.81;4994696;28;20048;-44
2023/09/18 08:03:15;;;;;;;6.45;2.60;;;;;;;25.02;100.00;100070.28;4996118;28;20583;-48
2023/09/18 08:05:41;;;;;;;9.57;3.15;;;;;;;25.01;100.00;100080.13;4991109;28;20100;-47
2023/09/18 08:08:08;;;;;;;8.00;2.30;;;;;;;25.00;100.00;100082.19;4990333;28;20054;-44
2023/09/18 08:10:37;;;;;;;12.57;2.50;;;;;;;24.99;100.00;100080.66;4990204;28;20501;-44
2023/09/18 08:13:03;;;;;;;8.57;2.30;;;;;;;24.96;100.00;100095.16;4984615;28;20153;-47
2023/09/18 08:15:30;;;;;;;9.70;2.75;;;;;;;24.99;100.00;100092.03;4983741;28;20050;-45
2023/09/18 08:17:58;;;;;;;8.60;2.38;;;;;;;24.94;100.00;100101.38;4988635;28;20046;-44
2023/09/18 08:20:26;;;;;;;9.95;3.20;;;;;;;24.93;100.00;100074.25;4996832;28;20465;-44
2023/09/18 08:22:52;;;;;;;9.10;2.50;;;;;;;24.97;100.00;100071.88;4990502;28;20080;-45
2023/09/18 08:25:21;;;;;;;7.75;2.50;;;;;;;25.00;100.00;100089.97;4991571;28;20050;-45
2023/09/18 08:27:48;;;;;;;7.28;2.42;;;;;;;24.93;100.00;100102.69;4991141;28;20467;-48
2023/09/18 08:30:15;;;;;;;7.15;2.20;;;;;;;24.95;100.00;100108.63;4991169;28;20472;-45
2023/09/18 08:32:43;;;;;;;9.40;2.40;;;;;;;24.90;100.00;100097.31;4997731;28;20473;-49
2023/09/18 08:35:10;;;;;;;8.13;2.55;;;;;;;24.91;100.00;100099.63;4983295;28;20056;-44
2023/09/18 08:37:36;;;;;;;7.68;2.45;;;;;;;24.90;100.00;100105.84;4982340;28;22221;-47
2023/09/18 08:40:09;;;;;;;8.63;2.20;;;;;;;24.93;100.00;100097.00;4983590;28;20480;-44
2023/09/18 08:42:45;;;;;;;7.75;2.30;;;;;;;24.91;100.00;100104.53;4985323;28;20058;-50
2023/09/18 08:45:19;;;;;;;5.35;1.92;;;;;;;24.89;100.00;100109.97;4982438;28;20536;-45
2023/09/18 08:47:46;;;;;;;9.38;2.13;;;;;;;24.88;100.00;100094.22;4982721;28;20658;-45
2023/09/18 08:50:15;;;;;;;3.67;1.88;;;;;;;24.87;100.00;100090.59;4982403;28;20792;-47
2023/09/18 08:52:43;;;;;;;6.53;2.20;;;;;;;24.95;100.00;100090.78;4987294;28;21162;-45
2023/09/18 08:55:10;;;;;;;5.82;2.15;;;;;;;24.91;100.00;100096.00;4982303;28;20094;-45
2023/09/18 08:57:39;;;;;;;5.43;2.05;;;;;;;24.93;100.00;100084.84;4981732;28;20050;-45
2023/09/18 09:00:07;;;;;;;6.93;2.05;;;;;;;24.94;100.00;100094.94;4981792;28;20809;-47
2023/09/18 09:02:34;;;;;;;3.38;1.75;;;;;;;24.93;100.00;100111.22;4982551;28;20100;-45
2023/09/18 09:05:01;;;;;;;6.75;2.10;;;;;;;24.93;100.00;100110.44;4982663;28;20054;-50
2023/09/18 09:07:31;;;;;;;5.05;1.85;;;;;;;24.84;100.00;100107.94;4981894;28;20712;-46
2023/09/18 09:09:57;;;;;;;8.73;2.15;;;;;;;24.80;100.00;100111.03;4982036;28;20054;-45
2023/09/18 09:12:46;;;;;;;7.93;3.05;;;;;;;24.82;100.00;100117.00;4982639;28;20073;-46
2023/09/18 09:15:12;;;;;;;4.35;2.10;;;;;;;24.82;100.00;100119.81;4983309;28;20051;-47
2023/09/18 09:17:40;;;;;;;9.20;1.83;;;;;;;24.80;100.00;100116.72;4982885;28;20038;-45
2023/09/18 09:20:13;;;;;;;6.75;1.80;;;;;;;24.80;100.00;100118.81;4990062;28;20061;-47
2023/09/18 09:22:41;;;;;;;15.05;2.35;;;;;;;24.78;100.00;100121.41;4998229;28;20073;-45
2023/09/18 09:25:19;;;;;;;6.60;1.95;;;;;;;24.79;100.00;100100.22;4994489;28;20081;-46
2023/09/18 09:27:46;;;;;;;7.43;2.05;;;;;;;24.80;100.00;100108.22;4983337;28;20054;-47
2023/09/18 09:30:23;;;;;;;7.72;2.60;;;;;;;24.76;100.00;100119.09;4988744;28;20137;-45
2023/09/18 09:32:52;;;;;;;5.90;1.67;;;;;;;24.80;100.00;100111.03;4983005;28;20575;-45
2023/09/18 09:35:37;;;;;;;3.75;1.80;;;;;;;24.73;100.00;100111.63;4983380;28;20046;-47
2023/09/18 09:38:12;;;;;;;4.53;1.70;;;;;;;24.79;100.00;100105.88;4985698;28;20050;-50
2023/09/18 09:40:40;;;;;;;5.88;1.88;;;;;;;24.74;100.00;100116.00;4981729;28;20057;-45
2023/09/18 09:43:09;;;;;;;5.82;1.90;;;;;;;24.77;100.00;100114.19;4983744;28;20046;-44
2023/09/18 09:45:36;;;;;;;7.38;2.70;;;;;;;24.76;100.00;100124.78;4983696;28;20159;-48
2023/09/18 09:48:05;;;;;;;6.40;1.50;;;;;;;24.77;100.00;100114.19;4982240;28;20076;-45
2023/09/18 09:50:46;;;;;;;6.32;1.45;;;;;;;24.76;100.00;100127.63;4981536;28;20441;-52
2023/09/18 09:53:13;;;;;;;2.78;1.27;;;;;;;24.71;100.00;100122.00;4981446;28;20472;-50
2023/09/18 09:55:40;;;;;;;5.32;2.03;;;;;;;24.78;100.00;100133.56;4989859;28;20096;-48
2023/09/18 09:58:10;;;;;;;6.82;1.75;;;;;;;24.78;100.00;100127.09;4993924;28;20077;-45
2023/09/18 10:00:49;;;;;;;4.10;1.42;;;;;;;24.73;100.00;100133.63;4994590;28;20092;-46
2023/09/18 10:03:18;;;;;;;3.83;2.20;;;;;;;24.75;100.00;100119.63;4996687;28;20540;-46
2023/09/18 10:05:47;;;;;;;3.33;1.70;;;;;;;24.73;100.00;100125.84;4981818;28;20049;-50
2023/09/18 10:08:22;;;;;;;5.38;1.48;;;;;;;24.71;100.00;100136.97;4985564;28;20062;-47
2023/09/18 10:10:51;;;;;;;5.35;1.50;;;;;;;24.71;100.00;100134.16;4982905;28;20129;-48
2023/09/18 10:13:24;;;;;;;8.02;2.20;;;;;;;24.70;100.00;100131.84;4985116;28;20105;-46
2023/09/18 10:15:52;;;;;;;7.10;2.20;;;;;;;24.71;100.00;100122.78;4986912;28;20054;-48
2023/09/18 10:18:50;;;;;;;4.68;1.70;;;;;;;24.73;100.00;100137.22;4985420;28;20046;-49
2023/09/18 10:21:34;;;;;;;8.48;1.45;;;;;;;24.71;100.00;100134.16;4979160;28;20057;-49
2023/09/18 10:24:23;;;;;;;3.72;1.60;;;;;;;24.65;100.00;100129.78;4980782;28;20074;-48
2023/09/18 10:26:58;;;;;;;4.13;1.45;;;;;;;24.72;100.00;100135.69;4984933;28;20424;-45
2023/09/18 10:29:26;;;;;;;3.08;1.50;;;;;;;24.74;100.00;100118.09;4982957;28;20072;-48
2023/09/18 10:31:53;;;;;;;4.63;1.50;;;;;;;24.70;100.00;100126.91;4980245;28;20043;-51
2023/09/18 10:34:22;;;;;;;3.63;1.55;;;;;;;24.73;100.00;100120.16;4980552;28;20074;-48
2023/09/18 10:36:50;;;;;;;3.38;1.55;;;;;;;24.71;100.00;100102.88;4980597;28;20034;-46
2023/09/18 10:39:19;;;;;;;11.00;1.75;;;;;;;24.75;100.00;100114.72;4980595;28;20050;-47
2023/09/18 10:41:48;;;;;;;6.25;1.90;;;;;;;24.77;100.00;100106.41;4980749;28;20133;-48
2023/09/18 10:44:17;;;;;;;9.13;2.03;;;;;;;24.80;100.00;100116.72;4979682;28;20058;-50
2023/09/18 10:46:48;;;;;;;8.85;1.98;;;;;;;24.83;100.00;100112.84;4982134;28;20046;-49
2023/09/18 10:49:18;;;;;;;7.60;2.20;;;;;;;24.75;100.00;100111.09;4975869;28;20501;-46
2023/09/18 10:51:47;;;;;;;8.60;2.00;;;;;;;24.79;100.00;100118.03;4977997;28;20074;-46
2023/09/18 10:54:21;;;;;;;3.75;1.50;;;;;;;24.76;100.00;100124.00;4979543;28;20108;-49
2023/09/18 10:56:48;;;;;;;4.30;1.50;;;;;;;24.78;100.00;100119.34;4981135;28;20145;-44
2023/09/18 10:59:16;;;;;;;5.40;1.70;;;;;;;24.74;100.00;100116.00;4980903;28;20311;-48
2023/09/18 11:01:43;;;;;;;5.22;1.65;;;;;;;24.74;100.00;100121.69;4979812;28;20568;-51
2023/09/18 11:04:10;;;;;;;4.20;1.92;;;;;;;24.74;100.00;100115.25;4980659;28;20401;-43
2023/09/18 11:06:55;;;;;;;5.03;1.85;;;;;;;24.76;100.00;100127.63;4989406;28;20178;-44
2023/09/18 11:09:29;;;;;;;10.88;2.28;;;;;;;24.75;100.00;100125.31;4984599;28;20062;-43
2023/09/18 11:11:57;;;;;;;3.63;1.80;;;;;;;24.77;100.00;100117.78;4981538;28;20057;-48
2023/09/18 11:14:57;;;;;;;3.70;1.65;;;;;;;24.71;100.00;100114.25;4994439;28;20571;-50